BRS2101 GVAC-LPPT
Flight info
| Callsign | BRS2101 |
|---|---|
| Flight time | 3h 38m |
| Altitude | 39000 |
| Route | DIMKI1A DIMKI DCT IPERA N873 LIMAL/N0455F380 DCT UDATI DCT ODEGI DCT LOMAS DCT GDV DCT VASTO DCT BAROK DCT VATZI |
| Aircraft | A319/M-SDE2E3FGHIJ1J3J4J5RWYZ/SB1 |
Departure
| Time | 2026-04-21 12:14 |
|---|---|
| Airport | Amílcar Cabral International Airport (GVAC) |
Arrival
| Time | 2026-04-21 15:52 |
|---|---|
| Airport | Lisbon Humberto Delgado Airport (LPPT) |
| Time | Latitude | Longitude | Altitude | Speed | Heading |
|---|---|---|---|---|---|
| 2026-04-21 12:01 | 16.73583 | -22.94506 | 201 ft | 0 kts | 123° |
| 2026-04-21 12:10 | 16.73569 | -22.94508 | 210 ft | 5 kts | 205° |
| 2026-04-21 12:10 | 16.73556 | -22.94577 | 200 ft | 12 kts | 245° |
| 2026-04-21 12:10 | 16.73476 | -22.94596 | 205 ft | 13 kts | 179° |
| 2026-04-21 12:10 | 16.73475 | -22.94596 | 206 ft | 13 kts | 179° |
| 2026-04-21 12:11 | 16.73376 | -22.94596 | 200 ft | 15 kts | 180° |
| 2026-04-21 12:11 | 16.73281 | -22.94595 | 206 ft | 13 kts | 179° |
| 2026-04-21 12:11 | 16.73183 | -22.94594 | 210 ft | 15 kts | 180° |
| 2026-04-21 12:11 | 16.73082 | -22.94611 | 207 ft | 15 kts | 224° |
| 2026-04-21 12:12 | 16.73009 | -22.94692 | 207 ft | 16 kts | 192° |
| 2026-04-21 12:12 | 16.72871 | -22.94690 | 203 ft | 23 kts | 179° |
| 2026-04-21 12:12 | 16.72721 | -22.94690 | 198 ft | 22 kts | 179° |
| 2026-04-21 12:12 | 16.72573 | -22.94688 | 184 ft | 21 kts | 179° |
| 2026-04-21 12:13 | 16.72449 | -22.94688 | 183 ft | 15 kts | 186° |
| 2026-04-21 12:13 | 16.72409 | -22.94769 | 189 ft | 14 kts | 269° |
| 2026-04-21 12:13 | 16.72415 | -22.94867 | 186 ft | 13 kts | 292° |
| 2026-04-21 12:13 | 16.72507 | -22.94886 | 199 ft | 24 kts | 359° |
| 2026-04-21 12:14 | 16.72873 | -22.94888 | 190 ft | 81 kts | 360° |
| 2026-04-21 12:14 | 16.73619 | -22.94893 | 189 ft | 134 kts | 359° |
| 2026-04-21 12:14 | 16.74616 | -22.94892 | 625 ft | 141 kts | 4° |
| 2026-04-21 12:14 | 16.75600 | -22.94899 | 1205 ft | 142 kts | 1° |
| 2026-04-21 12:15 | 16.76628 | -22.94908 | 1691 ft | 157 kts | 0° |
| 2026-04-21 12:15 | 16.77795 | -22.94917 | 2051 ft | 179 kts | 0° |
| 2026-04-21 12:15 | 16.79139 | -22.94927 | 2443 ft | 206 kts | 0° |
| 2026-04-21 12:15 | 16.80662 | -22.94936 | 3017 ft | 231 kts | 0° |
| 2026-04-21 12:16 | 16.82341 | -22.94948 | 3770 ft | 249 kts | 359° |
| 2026-04-21 12:16 | 16.84117 | -22.94963 | 4587 ft | 262 kts | 356° |
| 2026-04-21 12:16 | 16.85985 | -22.94982 | 5325 ft | 274 kts | 355° |
| 2026-04-21 12:16 | 16.87912 | -22.95001 | 6193 ft | 280 kts | 355° |
| 2026-04-21 12:17 | 16.89883 | -22.95015 | 6987 ft | 287 kts | 356° |
| 2026-04-21 12:17 | 16.91889 | -22.94712 | 7786 ft | 299 kts | 12° |
| 2026-04-21 12:17 | 16.93819 | -22.93803 | 8742 ft | 311 kts | 30° |
| 2026-04-21 12:17 | 16.95629 | -22.92481 | 9837 ft | 318 kts | 32° |
| 2026-04-21 12:18 | 16.97483 | -22.91132 | 10582 ft | 332 kts | 32° |
| 2026-04-21 12:18 | 16.99452 | -22.89717 | 10872 ft | 355 kts | 31° |
| 2026-04-21 12:18 | 17.01558 | -22.88212 | 11108 ft | 379 kts | 32° |
| 2026-04-21 12:18 | 17.03772 | -22.86625 | 11510 ft | 391 kts | 32° |
| 2026-04-21 12:19 | 17.06030 | -22.84999 | 12116 ft | 396 kts | 32° |
| 2026-04-21 12:19 | 17.08306 | -22.83354 | 12793 ft | 400 kts | 32° |
| 2026-04-21 12:19 | 17.09824 | -22.82254 | 13227 ft | 402 kts | 32° |
| 2026-04-21 12:19 | 17.12922 | -22.80010 | 14066 ft | 407 kts | 32° |
| 2026-04-21 12:20 | 17.15255 | -22.78320 | 14662 ft | 409 kts | 32° |
| 2026-04-21 12:20 | 17.16811 | -22.77194 | 15053 ft | 411 kts | 32° |
| 2026-04-21 12:20 | 17.19167 | -22.75493 | 15651 ft | 414 kts | 32° |
| 2026-04-21 12:20 | 17.21541 | -22.73778 | 16265 ft | 416 kts | 32° |
| 2026-04-21 12:21 | 17.23966 | -22.72027 | 16904 ft | 418 kts | 32° |
| 2026-04-21 12:21 | 17.26359 | -22.70295 | 17521 ft | 420 kts | 32° |
| 2026-04-21 12:21 | 17.28744 | -22.68571 | 18135 ft | 423 kts | 32° |
| 2026-04-21 12:21 | 17.31199 | -22.66793 | 18702 ft | 425 kts | 31° |
| 2026-04-21 12:22 | 17.33640 | -22.65023 | 19217 ft | 428 kts | 31° |
| 2026-04-21 12:22 | 17.36090 | -22.63244 | 19724 ft | 430 kts | 31° |
| 2026-04-21 12:22 | 17.38555 | -22.61452 | 20214 ft | 433 kts | 31° |
| 2026-04-21 12:22 | 17.41043 | -22.59643 | 20688 ft | 435 kts | 31° |
| 2026-04-21 12:23 | 17.43525 | -22.57842 | 21143 ft | 438 kts | 30° |
| 2026-04-21 12:23 | 17.46035 | -22.56022 | 21583 ft | 440 kts | 30° |
| 2026-04-21 12:23 | 17.48557 | -22.54196 | 22007 ft | 443 kts | 30° |
| 2026-04-21 12:23 | 17.51098 | -22.52353 | 22416 ft | 445 kts | 30° |
| 2026-04-21 12:24 | 17.53653 | -22.50496 | 22806 ft | 447 kts | 30° |
| 2026-04-21 12:24 | 17.56212 | -22.48631 | 23205 ft | 450 kts | 30° |
| 2026-04-21 12:24 | 17.58786 | -22.46755 | 23584 ft | 452 kts | 29° |
| 2026-04-21 12:24 | 17.61371 | -22.44874 | 23894 ft | 454 kts | 29° |
| 2026-04-21 12:25 | 17.63972 | -22.42985 | 24207 ft | 456 kts | 29° |
| 2026-04-21 12:25 | 17.66584 | -22.41085 | 24503 ft | 458 kts | 29° |
| 2026-04-21 12:25 | 17.69203 | -22.39176 | 24803 ft | 460 kts | 29° |
| 2026-04-21 12:25 | 17.71841 | -22.37250 | 25099 ft | 462 kts | 29° |
| 2026-04-21 12:26 | 17.74520 | -22.35296 | 25385 ft | 464 kts | 29° |
| 2026-04-21 12:26 | 17.77142 | -22.33384 | 25667 ft | 466 kts | 29° |
| 2026-04-21 12:26 | 17.79849 | -22.31409 | 25971 ft | 468 kts | 28° |
| 2026-04-21 12:26 | 17.82524 | -22.29457 | 26263 ft | 470 kts | 28° |
| 2026-04-21 12:27 | 17.85215 | -22.27494 | 26528 ft | 472 kts | 28° |
| 2026-04-21 12:27 | 17.87919 | -22.25522 | 26799 ft | 474 kts | 28° |
| 2026-04-21 12:27 | 17.90658 | -22.23589 | 27065 ft | 475 kts | 26° |
| 2026-04-21 12:27 | 17.93469 | -22.21768 | 27329 ft | 475 kts | 24° |
| 2026-04-21 12:28 | 17.96330 | -22.20034 | 27586 ft | 475 kts | 22° |
| 2026-04-21 12:28 | 17.99224 | -22.18332 | 27841 ft | 477 kts | 22° |
| 2026-04-21 12:28 | 18.02128 | -22.16627 | 28096 ft | 479 kts | 22° |
| 2026-04-21 12:28 | 18.05038 | -22.14896 | 28348 ft | 482 kts | 23° |
| 2026-04-21 12:29 | 18.07947 | -22.13137 | 28600 ft | 484 kts | 23° |
| 2026-04-21 12:29 | 18.10863 | -22.11346 | 28837 ft | 486 kts | 24° |
| 2026-04-21 12:29 | 18.13780 | -22.09534 | 29076 ft | 489 kts | 23° |
| 2026-04-21 12:29 | 18.16714 | -22.07707 | 29275 ft | 491 kts | 23° |
| 2026-04-21 12:30 | 18.19661 | -22.05872 | 29573 ft | 492 kts | 23° |
| 2026-04-21 12:30 | 18.22605 | -22.04042 | 29919 ft | 491 kts | 23° |
| 2026-04-21 12:30 | 18.25542 | -22.02223 | 30230 ft | 490 kts | 23° |
| 2026-04-21 12:30 | 18.28528 | -22.00380 | 30522 ft | 490 kts | 22° |
| 2026-04-21 12:31 | 18.31469 | -21.98564 | 30796 ft | 491 kts | 22° |
| 2026-04-21 12:31 | 18.34412 | -21.96745 | 31076 ft | 491 kts | 22° |
| 2026-04-21 12:31 | 18.37353 | -21.94925 | 31356 ft | 491 kts | 22° |
| 2026-04-21 12:31 | 18.40303 | -21.93097 | 31646 ft | 491 kts | 22° |
| 2026-04-21 12:32 | 18.43251 | -21.91276 | 31942 ft | 492 kts | 22° |
| 2026-04-21 12:32 | 18.46199 | -21.89457 | 32244 ft | 492 kts | 22° |
| 2026-04-21 12:32 | 18.49154 | -21.87631 | 32554 ft | 493 kts | 22° |
| 2026-04-21 12:32 | 18.52111 | -21.85797 | 32862 ft | 493 kts | 22° |
| 2026-04-21 12:33 | 18.55068 | -21.83958 | 33178 ft | 494 kts | 22° |
| 2026-04-21 12:33 | 18.58023 | -21.82119 | 33515 ft | 494 kts | 22° |
| 2026-04-21 12:33 | 18.60984 | -21.80279 | 33861 ft | 494 kts | 21° |
| 2026-04-21 12:33 | 18.63948 | -21.78440 | 34180 ft | 494 kts | 21° |
| 2026-04-21 12:34 | 18.66912 | -21.76604 | 34503 ft | 494 kts | 21° |
| 2026-04-21 12:34 | 18.69870 | -21.74770 | 34812 ft | 494 kts | 21° |
| 2026-04-21 12:34 | 18.72833 | -21.72930 | 35134 ft | 494 kts | 21° |
| 2026-04-21 12:34 | 18.75796 | -21.71090 | 35463 ft | 494 kts | 21° |
| 2026-04-21 12:35 | 18.78750 | -21.69256 | 35778 ft | 493 kts | 21° |
| 2026-04-21 12:35 | 18.81714 | -21.67415 | 36124 ft | 493 kts | 21° |
| 2026-04-21 12:35 | 18.84667 | -21.65577 | 36464 ft | 492 kts | 21° |
| 2026-04-21 12:35 | 18.87653 | -21.63716 | 36802 ft | 491 kts | 21° |
| 2026-04-21 12:36 | 18.90597 | -21.61880 | 36988 ft | 491 kts | 21° |
| 2026-04-21 12:36 | 18.96460 | -21.58226 | 37027 ft | 488 kts | 21° |
| 2026-04-21 12:37 | 19.02307 | -21.54573 | 37027 ft | 488 kts | 21° |
| 2026-04-21 12:37 | 19.08151 | -21.50921 | 37029 ft | 488 kts | 21° |
| 2026-04-21 12:38 | 19.14005 | -21.47265 | 37025 ft | 488 kts | 21° |
| 2026-04-21 12:38 | 19.19843 | -21.43619 | 37053 ft | 487 kts | 21° |
| 2026-04-21 12:39 | 19.25678 | -21.39965 | 37047 ft | 487 kts | 21° |
| 2026-04-21 12:39 | 19.31501 | -21.36318 | 37047 ft | 487 kts | 21° |
| 2026-04-21 12:40 | 19.37328 | -21.32661 | 37047 ft | 486 kts | 21° |
| 2026-04-21 12:40 | 19.43191 | -21.28985 | 37044 ft | 486 kts | 21° |
| 2026-04-21 12:41 | 19.49012 | -21.25334 | 37044 ft | 486 kts | 21° |
| 2026-04-21 12:41 | 19.54831 | -21.21679 | 37052 ft | 486 kts | 20° |
| 2026-04-21 12:42 | 19.60645 | -21.18014 | 37048 ft | 486 kts | 20° |
| 2026-04-21 12:42 | 19.66452 | -21.14358 | 37045 ft | 486 kts | 20° |
| 2026-04-21 12:43 | 19.72258 | -21.10694 | 37053 ft | 485 kts | 20° |
| 2026-04-21 12:43 | 19.78064 | -21.07033 | 37048 ft | 485 kts | 20° |
| 2026-04-21 12:44 | 19.83867 | -21.03372 | 37047 ft | 485 kts | 20° |
| 2026-04-21 12:44 | 19.89665 | -20.99709 | 37067 ft | 484 kts | 20° |
| 2026-04-21 12:45 | 19.95445 | -20.96048 | 37055 ft | 483 kts | 20° |
| 2026-04-21 12:45 | 20.01254 | -20.92373 | 37051 ft | 483 kts | 20° |
| 2026-04-21 12:46 | 20.07032 | -20.88714 | 37047 ft | 483 kts | 20° |
| 2026-04-21 12:46 | 20.12803 | -20.85062 | 37047 ft | 482 kts | 20° |
| 2026-04-21 12:47 | 20.18568 | -20.81405 | 37046 ft | 482 kts | 20° |
| 2026-04-21 12:47 | 20.24332 | -20.77742 | 37051 ft | 482 kts | 20° |
| 2026-04-21 12:48 | 20.30085 | -20.74078 | 37048 ft | 482 kts | 20° |
| 2026-04-21 12:48 | 20.35838 | -20.70413 | 37040 ft | 482 kts | 20° |
| 2026-04-21 12:49 | 20.41597 | -20.66752 | 37039 ft | 481 kts | 20° |
| 2026-04-21 12:49 | 20.46415 | -20.63686 | 37037 ft | 481 kts | 20° |
| 2026-04-21 12:50 | 20.52155 | -20.60009 | 37053 ft | 482 kts | 20° |
| 2026-04-21 12:50 | 20.57896 | -20.56332 | 37053 ft | 481 kts | 20° |
| 2026-04-21 12:51 | 20.63636 | -20.52654 | 37045 ft | 481 kts | 20° |
| 2026-04-21 12:51 | 20.69372 | -20.48975 | 37042 ft | 481 kts | 20° |
| 2026-04-21 12:52 | 20.75106 | -20.45300 | 37049 ft | 481 kts | 20° |
| 2026-04-21 12:52 | 20.80841 | -20.41619 | 37042 ft | 481 kts | 20° |
| 2026-04-21 12:53 | 20.86573 | -20.37940 | 37031 ft | 480 kts | 20° |
| 2026-04-21 12:53 | 20.92300 | -20.34258 | 37052 ft | 480 kts | 20° |
| 2026-04-21 12:54 | 20.98027 | -20.30573 | 37042 ft | 480 kts | 20° |
| 2026-04-21 12:54 | 21.03755 | -20.26880 | 37036 ft | 481 kts | 20° |
| 2026-04-21 12:55 | 21.09477 | -20.23186 | 37034 ft | 480 kts | 20° |
| 2026-04-21 12:55 | 21.15205 | -20.19482 | 37027 ft | 480 kts | 20° |
| 2026-04-21 12:56 | 21.20963 | -20.15758 | 37048 ft | 480 kts | 20° |
| 2026-04-21 12:56 | 21.26691 | -20.12061 | 37051 ft | 481 kts | 19° |
| 2026-04-21 12:57 | 21.32420 | -20.08353 | 37033 ft | 481 kts | 19° |
| 2026-04-21 12:57 | 21.38141 | -20.04641 | 37024 ft | 481 kts | 19° |
| 2026-04-21 12:58 | 21.43872 | -20.00921 | 37020 ft | 481 kts | 19° |
| 2026-04-21 12:58 | 21.49600 | -19.97204 | 37020 ft | 481 kts | 19° |
| 2026-04-21 12:59 | 21.55324 | -19.93482 | 37058 ft | 481 kts | 19° |
| 2026-04-21 12:59 | 21.61051 | -19.89760 | 37044 ft | 481 kts | 19° |
| 2026-04-21 13:00 | 21.66774 | -19.86043 | 37034 ft | 481 kts | 19° |
| 2026-04-21 13:00 | 21.72497 | -19.82312 | 37030 ft | 481 kts | 19° |
| 2026-04-21 13:01 | 21.78215 | -19.78577 | 37035 ft | 481 kts | 19° |
| 2026-04-21 13:01 | 21.83934 | -19.74844 | 37030 ft | 481 kts | 19° |
| 2026-04-21 13:02 | 21.89652 | -19.71105 | 37065 ft | 481 kts | 18° |
| 2026-04-21 13:02 | 21.98215 | -19.65499 | 37042 ft | 480 kts | 18° |
| 2026-04-21 13:03 | 22.03918 | -19.61771 | 37036 ft | 479 kts | 18° |
| 2026-04-21 13:03 | 22.09654 | -19.58016 | 37032 ft | 479 kts | 18° |
| 2026-04-21 13:04 | 22.15352 | -19.54275 | 37030 ft | 479 kts | 18° |
| 2026-04-21 13:04 | 22.21047 | -19.50531 | 37028 ft | 479 kts | 18° |
| 2026-04-21 13:05 | 22.26730 | -19.46793 | 37022 ft | 476 kts | 18° |
| 2026-04-21 13:05 | 22.32384 | -19.43070 | 37020 ft | 476 kts | 18° |
| 2026-04-21 13:06 | 22.38042 | -19.39345 | 37024 ft | 476 kts | 18° |
| 2026-04-21 13:06 | 22.43707 | -19.35616 | 37026 ft | 477 kts | 18° |
| 2026-04-21 13:07 | 22.49349 | -19.31878 | 37027 ft | 477 kts | 18° |
| 2026-04-21 13:07 | 22.55020 | -19.28121 | 37027 ft | 477 kts | 18° |
| 2026-04-21 13:08 | 22.60699 | -19.24364 | 37006 ft | 472 kts | 17° |
| 2026-04-21 13:08 | 22.66296 | -19.20663 | 37003 ft | 472 kts | 17° |
| 2026-04-21 13:09 | 22.71917 | -19.16949 | 37011 ft | 473 kts | 17° |
| 2026-04-21 13:09 | 22.77534 | -19.13224 | 37015 ft | 473 kts | 17° |
| 2026-04-21 13:10 | 22.83149 | -19.09497 | 37018 ft | 474 kts | 17° |
| 2026-04-21 13:10 | 22.88766 | -19.05760 | 37019 ft | 473 kts | 17° |
| 2026-04-21 13:11 | 22.94366 | -19.02027 | 37011 ft | 471 kts | 16° |
| 2026-04-21 13:11 | 22.99941 | -18.98309 | 37005 ft | 471 kts | 16° |
| 2026-04-21 13:12 | 23.05528 | -18.94588 | 37006 ft | 471 kts | 16° |
| 2026-04-21 13:12 | 23.11117 | -18.90863 | 37008 ft | 471 kts | 16° |
| 2026-04-21 13:13 | 23.16712 | -18.87134 | 37010 ft | 472 kts | 16° |
| 2026-04-21 13:13 | 23.22302 | -18.83396 | 37058 ft | 472 kts | 16° |
| 2026-04-21 13:14 | 23.27891 | -18.79652 | 37044 ft | 471 kts | 16° |
| 2026-04-21 13:14 | 23.33467 | -18.75906 | 37034 ft | 471 kts | 16° |
| 2026-04-21 13:15 | 23.39081 | -18.72150 | 37027 ft | 470 kts | 16° |
| 2026-04-21 13:15 | 23.44650 | -18.68418 | 37019 ft | 470 kts | 16° |
| 2026-04-21 13:16 | 23.50227 | -18.64674 | 37019 ft | 470 kts | 16° |
| 2026-04-21 13:16 | 23.55796 | -18.60925 | 37018 ft | 471 kts | 16° |
| 2026-04-21 13:17 | 23.61362 | -18.57178 | 37017 ft | 471 kts | 16° |
| 2026-04-21 13:17 | 23.66935 | -18.53415 | 37015 ft | 471 kts | 16° |
| 2026-04-21 13:18 | 23.72499 | -18.49656 | 37017 ft | 471 kts | 16° |
| 2026-04-21 13:18 | 23.78067 | -18.45895 | 37016 ft | 471 kts | 16° |
| 2026-04-21 13:19 | 23.83641 | -18.42129 | 37033 ft | 471 kts | 15° |
| 2026-04-21 13:19 | 23.89209 | -18.38367 | 37059 ft | 470 kts | 15° |
| 2026-04-21 13:20 | 23.94743 | -18.34615 | 36998 ft | 467 kts | 15° |
| 2026-04-21 13:20 | 24.00268 | -18.30875 | 36999 ft | 468 kts | 15° |
| 2026-04-21 13:21 | 24.05805 | -18.27117 | 37002 ft | 469 kts | 15° |
| 2026-04-21 13:21 | 24.10445 | -18.23958 | 37005 ft | 469 kts | 15° |
| 2026-04-21 13:22 | 24.15979 | -18.20190 | 37007 ft | 469 kts | 15° |
| 2026-04-21 13:22 | 24.21521 | -18.16421 | 37008 ft | 469 kts | 15° |
| 2026-04-21 13:23 | 24.27099 | -18.12625 | 37035 ft | 469 kts | 15° |
| 2026-04-21 13:23 | 24.32630 | -18.08839 | 37048 ft | 469 kts | 15° |
| 2026-04-21 13:24 | 24.38162 | -18.05052 | 37033 ft | 468 kts | 15° |
| 2026-04-21 13:24 | 24.43691 | -18.01279 | 37024 ft | 468 kts | 15° |
| 2026-04-21 13:25 | 24.49219 | -17.97504 | 37016 ft | 468 kts | 15° |
| 2026-04-21 13:25 | 24.54743 | -17.93720 | 37059 ft | 468 kts | 16° |
| 2026-04-21 13:26 | 24.60249 | -17.89930 | 37007 ft | 467 kts | 16° |
| 2026-04-21 13:26 | 24.65760 | -17.86155 | 37003 ft | 467 kts | 16° |
| 2026-04-21 13:27 | 24.71270 | -17.82377 | 37003 ft | 467 kts | 16° |
| 2026-04-21 13:27 | 24.76786 | -17.78585 | 37004 ft | 467 kts | 16° |
| 2026-04-21 13:28 | 24.82301 | -17.74784 | 37005 ft | 468 kts | 16° |
| 2026-04-21 13:28 | 24.87819 | -17.70969 | 37070 ft | 468 kts | 17° |
| 2026-04-21 13:29 | 24.93312 | -17.67173 | 36992 ft | 465 kts | 17° |
| 2026-04-21 13:29 | 24.98830 | -17.63370 | 36994 ft | 466 kts | 17° |
| 2026-04-21 13:30 | 25.04320 | -17.59572 | 36997 ft | 466 kts | 17° |
| 2026-04-21 13:30 | 25.09820 | -17.55761 | 37004 ft | 467 kts | 17° |
| 2026-04-21 13:31 | 25.15320 | -17.51942 | 37007 ft | 467 kts | 17° |
| 2026-04-21 13:31 | 25.20818 | -17.48122 | 37046 ft | 467 kts | 18° |
| 2026-04-21 13:32 | 25.26300 | -17.44298 | 37012 ft | 466 kts | 19° |
| 2026-04-21 13:32 | 25.31783 | -17.40480 | 37009 ft | 466 kts | 19° |
| 2026-04-21 13:33 | 25.37268 | -17.36670 | 37016 ft | 466 kts | 19° |
| 2026-04-21 13:33 | 25.42749 | -17.32847 | 37016 ft | 465 kts | 19° |
| 2026-04-21 13:34 | 25.48221 | -17.29023 | 37014 ft | 465 kts | 19° |
| 2026-04-21 13:34 | 25.53687 | -17.25191 | 37026 ft | 465 kts | 20° |
| 2026-04-21 13:35 | 25.59143 | -17.21367 | 36999 ft | 463 kts | 20° |
| 2026-04-21 13:35 | 25.64592 | -17.17552 | 36994 ft | 463 kts | 20° |
| 2026-04-21 13:36 | 25.70088 | -17.13708 | 36995 ft | 464 kts | 20° |
| 2026-04-21 13:36 | 25.75538 | -17.09875 | 36997 ft | 464 kts | 20° |
| 2026-04-21 13:37 | 25.80993 | -17.06039 | 36996 ft | 464 kts | 20° |
| 2026-04-21 13:37 | 25.86446 | -17.02206 | 37011 ft | 463 kts | 21° |
| 2026-04-21 13:38 | 25.91859 | -16.98380 | 36985 ft | 460 kts | 21° |
| 2026-04-21 13:38 | 25.97269 | -16.94563 | 36995 ft | 461 kts | 21° |
| 2026-04-21 13:39 | 26.02680 | -16.90742 | 37003 ft | 461 kts | 22° |
| 2026-04-21 13:39 | 26.08094 | -16.86916 | 36990 ft | 461 kts | 21° |
| 2026-04-21 13:40 | 26.13508 | -16.83086 | 36986 ft | 461 kts | 22° |
| 2026-04-21 13:40 | 26.18926 | -16.79250 | 37039 ft | 461 kts | 22° |
| 2026-04-21 13:41 | 26.24323 | -16.75415 | 37015 ft | 460 kts | 22° |
| 2026-04-21 13:41 | 26.29752 | -16.71571 | 37003 ft | 459 kts | 22° |
| 2026-04-21 13:42 | 26.35140 | -16.67762 | 37009 ft | 458 kts | 23° |
| 2026-04-21 13:42 | 26.40525 | -16.63950 | 37004 ft | 458 kts | 23° |
| 2026-04-21 13:43 | 26.43198 | -16.62049 | 37232 ft | 456 kts | 22° |
| 2026-04-21 13:43 | 26.45878 | -16.60146 | 37495 ft | 457 kts | 22° |
| 2026-04-21 13:43 | 26.48558 | -16.58238 | 37761 ft | 457 kts | 22° |
| 2026-04-21 13:43 | 26.51232 | -16.56333 | 37952 ft | 455 kts | 22° |
| 2026-04-21 13:44 | 26.56564 | -16.52538 | 37981 ft | 454 kts | 22° |
| 2026-04-21 13:44 | 26.61878 | -16.48741 | 37977 ft | 454 kts | 22° |
| 2026-04-21 13:45 | 26.67196 | -16.44946 | 37981 ft | 453 kts | 22° |
| 2026-04-21 13:45 | 26.72516 | -16.41145 | 37977 ft | 453 kts | 22° |
| 2026-04-21 13:46 | 26.77832 | -16.37345 | 37977 ft | 453 kts | 22° |
| 2026-04-21 13:46 | 26.83184 | -16.33519 | 37995 ft | 453 kts | 23° |
| 2026-04-21 13:47 | 26.88497 | -16.29707 | 37999 ft | 453 kts | 23° |
| 2026-04-21 13:47 | 26.93799 | -16.25897 | 37995 ft | 453 kts | 23° |
| 2026-04-21 13:48 | 26.99109 | -16.22071 | 37994 ft | 452 kts | 23° |
| 2026-04-21 13:48 | 27.04382 | -16.18268 | 37985 ft | 452 kts | 23° |
| 2026-04-21 13:49 | 27.09673 | -16.14446 | 37979 ft | 452 kts | 23° |
| 2026-04-21 13:49 | 27.14955 | -16.10630 | 38013 ft | 451 kts | 24° |
| 2026-04-21 13:50 | 27.20232 | -16.06815 | 38001 ft | 450 kts | 24° |
| 2026-04-21 13:50 | 27.25499 | -16.03001 | 37992 ft | 450 kts | 24° |
| 2026-04-21 13:51 | 27.30759 | -15.99195 | 38007 ft | 450 kts | 24° |
| 2026-04-21 13:51 | 27.36016 | -15.95383 | 37995 ft | 450 kts | 24° |
| 2026-04-21 13:52 | 27.40422 | -15.92189 | 37980 ft | 450 kts | 25° |
| 2026-04-21 13:52 | 27.45678 | -15.88356 | 38011 ft | 450 kts | 25° |
| 2026-04-21 13:53 | 27.50923 | -15.84529 | 38000 ft | 448 kts | 25° |
| 2026-04-21 13:53 | 27.56163 | -15.80718 | 37989 ft | 447 kts | 25° |
| 2026-04-21 13:54 | 27.61387 | -15.76906 | 37968 ft | 447 kts | 25° |
| 2026-04-21 13:54 | 27.66603 | -15.73091 | 37962 ft | 446 kts | 25° |
| 2026-04-21 13:55 | 27.71812 | -15.69281 | 37960 ft | 446 kts | 25° |
| 2026-04-21 13:55 | 27.77019 | -15.65466 | 37981 ft | 446 kts | 25° |
| 2026-04-21 13:56 | 27.82218 | -15.61649 | 37984 ft | 445 kts | 26° |
| 2026-04-21 13:56 | 27.87408 | -15.57840 | 37973 ft | 444 kts | 26° |
| 2026-04-21 13:57 | 27.92591 | -15.54040 | 37970 ft | 444 kts | 26° |
| 2026-04-21 13:57 | 27.97804 | -15.50211 | 37959 ft | 444 kts | 26° |
| 2026-04-21 13:58 | 28.02986 | -15.46393 | 37956 ft | 445 kts | 26° |
| 2026-04-21 13:58 | 28.08171 | -15.42568 | 37978 ft | 444 kts | 26° |
| 2026-04-21 13:59 | 28.13338 | -15.38742 | 37965 ft | 444 kts | 26° |
| 2026-04-21 13:59 | 28.18495 | -15.34908 | 37969 ft | 443 kts | 27° |
| 2026-04-21 14:00 | 28.23648 | -15.31070 | 37969 ft | 442 kts | 26° |
| 2026-04-21 14:00 | 28.28792 | -15.27244 | 37963 ft | 442 kts | 26° |
| 2026-04-21 14:01 | 28.33934 | -15.23415 | 37961 ft | 442 kts | 27° |
| 2026-04-21 14:01 | 28.39066 | -15.19573 | 38000 ft | 442 kts | 27° |
| 2026-04-21 14:02 | 28.44194 | -15.15733 | 37991 ft | 441 kts | 27° |
| 2026-04-21 14:03 | 28.51864 | -15.09994 | 37983 ft | 439 kts | 27° |
| 2026-04-21 14:03 | 28.56969 | -15.06175 | 37979 ft | 439 kts | 27° |
| 2026-04-21 14:04 | 28.62072 | -15.02352 | 37974 ft | 439 kts | 27° |
| 2026-04-21 14:04 | 28.67196 | -14.98502 | 37970 ft | 438 kts | 27° |
| 2026-04-21 14:05 | 28.72289 | -14.94679 | 37990 ft | 438 kts | 27° |
| 2026-04-21 14:05 | 28.77364 | -14.90849 | 37990 ft | 438 kts | 28° |
| 2026-04-21 14:06 | 28.82441 | -14.87019 | 37980 ft | 437 kts | 27° |
| 2026-04-21 14:06 | 28.87516 | -14.83184 | 37974 ft | 437 kts | 28° |
| 2026-04-21 14:07 | 28.92587 | -14.79345 | 37970 ft | 437 kts | 28° |
| 2026-04-21 14:07 | 28.97659 | -14.75508 | 37967 ft | 437 kts | 28° |
| 2026-04-21 14:08 | 29.02732 | -14.71667 | 37984 ft | 437 kts | 27° |
| 2026-04-21 14:08 | 29.07801 | -14.67832 | 37981 ft | 437 kts | 27° |
| 2026-04-21 14:09 | 29.12855 | -14.63996 | 37975 ft | 436 kts | 28° |
| 2026-04-21 14:09 | 29.17907 | -14.60149 | 37973 ft | 436 kts | 28° |
| 2026-04-21 14:10 | 29.22955 | -14.56299 | 37970 ft | 436 kts | 28° |
| 2026-04-21 14:10 | 29.28010 | -14.52448 | 37951 ft | 437 kts | 28° |
| 2026-04-21 14:11 | 29.33107 | -14.48569 | 37969 ft | 437 kts | 28° |
| 2026-04-21 14:11 | 29.38164 | -14.44706 | 37960 ft | 437 kts | 28° |
| 2026-04-21 14:12 | 29.43216 | -14.40836 | 37956 ft | 437 kts | 28° |
| 2026-04-21 14:12 | 29.48267 | -14.36965 | 37955 ft | 437 kts | 28° |
| 2026-04-21 14:13 | 29.53322 | -14.33089 | 37963 ft | 437 kts | 28° |
| 2026-04-21 14:13 | 29.58370 | -14.29220 | 37960 ft | 437 kts | 28° |
| 2026-04-21 14:14 | 29.63427 | -14.25342 | 37986 ft | 437 kts | 28° |
| 2026-04-21 14:14 | 29.68496 | -14.21437 | 37975 ft | 436 kts | 28° |
| 2026-04-21 14:15 | 29.73555 | -14.17537 | 37962 ft | 437 kts | 29° |
| 2026-04-21 14:15 | 29.78612 | -14.13633 | 37955 ft | 438 kts | 29° |
| 2026-04-21 14:16 | 29.83672 | -14.09716 | 37954 ft | 439 kts | 29° |
| 2026-04-21 14:16 | 29.88743 | -14.05792 | 37948 ft | 439 kts | 29° |
| 2026-04-21 14:17 | 29.93808 | -14.01872 | 37949 ft | 439 kts | 29° |
| 2026-04-21 14:17 | 29.98882 | -13.97949 | 37948 ft | 439 kts | 29° |
| 2026-04-21 14:18 | 30.03952 | -13.94010 | 37949 ft | 439 kts | 29° |
| 2026-04-21 14:18 | 30.09009 | -13.90062 | 37956 ft | 439 kts | 29° |
| 2026-04-21 14:19 | 30.14105 | -13.86097 | 37955 ft | 439 kts | 29° |
| 2026-04-21 14:19 | 30.19177 | -13.82151 | 37929 ft | 440 kts | 30° |
| 2026-04-21 14:20 | 30.24272 | -13.78190 | 37935 ft | 442 kts | 30° |
| 2026-04-21 14:20 | 30.29367 | -13.74202 | 37938 ft | 442 kts | 30° |
| 2026-04-21 14:21 | 30.34456 | -13.70203 | 37940 ft | 442 kts | 30° |
| 2026-04-21 14:21 | 30.39546 | -13.66216 | 37940 ft | 442 kts | 30° |
| 2026-04-21 14:22 | 30.44637 | -13.62231 | 37935 ft | 441 kts | 30° |
| 2026-04-21 14:22 | 30.49722 | -13.58242 | 37937 ft | 441 kts | 30° |
| 2026-04-21 14:23 | 30.55041 | -13.54792 | 37962 ft | 437 kts | 23° |
| 2026-04-21 14:23 | 30.60419 | -13.51527 | 37959 ft | 435 kts | 23° |
| 2026-04-21 14:24 | 30.64873 | -13.48823 | 37947 ft | 435 kts | 24° |
| 2026-04-21 14:24 | 30.70247 | -13.45552 | 37913 ft | 437 kts | 24° |
| 2026-04-21 14:25 | 30.75674 | -13.42240 | 37914 ft | 439 kts | 24° |
| 2026-04-21 14:25 | 30.81091 | -13.38933 | 37913 ft | 440 kts | 24° |
| 2026-04-21 14:26 | 30.86515 | -13.35620 | 37936 ft | 440 kts | 24° |
| 2026-04-21 14:26 | 30.91928 | -13.32306 | 37943 ft | 439 kts | 24° |
| 2026-04-21 14:27 | 30.97335 | -13.28989 | 37945 ft | 439 kts | 24° |
| 2026-04-21 14:27 | 31.02742 | -13.25676 | 37944 ft | 439 kts | 24° |
| 2026-04-21 14:28 | 31.08138 | -13.22362 | 37941 ft | 439 kts | 24° |
| 2026-04-21 14:28 | 31.13537 | -13.19044 | 37961 ft | 438 kts | 24° |
| 2026-04-21 14:29 | 31.18911 | -13.15740 | 37965 ft | 435 kts | 24° |
| 2026-04-21 14:29 | 31.24294 | -13.12420 | 37956 ft | 434 kts | 24° |
| 2026-04-21 14:30 | 31.29615 | -13.09128 | 37913 ft | 436 kts | 24° |
| 2026-04-21 14:30 | 31.35031 | -13.05776 | 37907 ft | 438 kts | 24° |
| 2026-04-21 14:31 | 31.40419 | -13.02436 | 37909 ft | 439 kts | 24° |
| 2026-04-21 14:31 | 31.45814 | -12.99093 | 37934 ft | 438 kts | 24° |
| 2026-04-21 14:32 | 31.51197 | -12.95753 | 37933 ft | 438 kts | 24° |
| 2026-04-21 14:32 | 31.56579 | -12.92399 | 37937 ft | 437 kts | 24° |
| 2026-04-21 14:33 | 31.61951 | -12.89053 | 37936 ft | 437 kts | 24° |
| 2026-04-21 14:33 | 31.67313 | -12.85712 | 37936 ft | 437 kts | 24° |
| 2026-04-21 14:34 | 31.72674 | -12.82368 | 37944 ft | 436 kts | 24° |
| 2026-04-21 14:34 | 31.78054 | -12.79009 | 37942 ft | 434 kts | 24° |
| 2026-04-21 14:35 | 31.83381 | -12.75674 | 37919 ft | 434 kts | 24° |
| 2026-04-21 14:35 | 31.88728 | -12.72318 | 37892 ft | 437 kts | 24° |
| 2026-04-21 14:36 | 31.94111 | -12.68942 | 37892 ft | 439 kts | 24° |
| 2026-04-21 14:36 | 31.99511 | -12.65558 | 37918 ft | 440 kts | 24° |
| 2026-04-21 14:37 | 32.04908 | -12.62164 | 37931 ft | 439 kts | 24° |
| 2026-04-21 14:37 | 32.10285 | -12.58775 | 37931 ft | 438 kts | 24° |
| 2026-04-21 14:38 | 32.15660 | -12.55387 | 37934 ft | 437 kts | 24° |
| 2026-04-21 14:38 | 32.21022 | -12.52007 | 37933 ft | 437 kts | 24° |
| 2026-04-21 14:39 | 32.26380 | -12.48618 | 37928 ft | 437 kts | 24° |
| 2026-04-21 14:39 | 32.31728 | -12.45222 | 37935 ft | 436 kts | 24° |
| 2026-04-21 14:40 | 32.37066 | -12.41833 | 37927 ft | 435 kts | 24° |
| 2026-04-21 14:40 | 32.42442 | -12.38425 | 37907 ft | 436 kts | 24° |
| 2026-04-21 14:41 | 32.47795 | -12.35024 | 37888 ft | 438 kts | 24° |
| 2026-04-21 14:41 | 32.53161 | -12.31603 | 37884 ft | 439 kts | 24° |
| 2026-04-21 14:42 | 32.58543 | -12.28169 | 37899 ft | 439 kts | 24° |
| 2026-04-21 14:42 | 32.63920 | -12.24735 | 37903 ft | 439 kts | 24° |
| 2026-04-21 14:43 | 32.69292 | -12.21306 | 37900 ft | 438 kts | 24° |
| 2026-04-21 14:43 | 32.74666 | -12.17866 | 37902 ft | 438 kts | 24° |
| 2026-04-21 14:44 | 32.80036 | -12.14418 | 37904 ft | 438 kts | 24° |
| 2026-04-21 14:44 | 32.85402 | -12.10972 | 37906 ft | 439 kts | 24° |
| 2026-04-21 14:45 | 32.90769 | -12.07516 | 37908 ft | 439 kts | 24° |
| 2026-04-21 14:45 | 32.96137 | -12.04064 | 37918 ft | 439 kts | 24° |
| 2026-04-21 14:46 | 33.01519 | -12.00598 | 37883 ft | 441 kts | 24° |
| 2026-04-21 14:46 | 33.06932 | -11.97098 | 37879 ft | 443 kts | 24° |
| 2026-04-21 14:47 | 33.12351 | -11.93595 | 37898 ft | 444 kts | 24° |
| 2026-04-21 14:47 | 33.17780 | -11.90085 | 37904 ft | 444 kts | 24° |
| 2026-04-21 14:48 | 33.23207 | -11.86560 | 37901 ft | 444 kts | 24° |
| 2026-04-21 14:48 | 33.28668 | -11.83015 | 37903 ft | 444 kts | 24° |
| 2026-04-21 14:49 | 33.34093 | -11.79493 | 37901 ft | 443 kts | 24° |
| 2026-04-21 14:49 | 33.39510 | -11.75963 | 37917 ft | 443 kts | 25° |
| 2026-04-21 14:50 | 33.44005 | -11.73032 | 37914 ft | 442 kts | 25° |
| 2026-04-21 14:50 | 33.50307 | -11.68916 | 37909 ft | 441 kts | 25° |
| 2026-04-21 14:51 | 33.55691 | -11.65392 | 37907 ft | 441 kts | 25° |
| 2026-04-21 14:51 | 33.61073 | -11.61876 | 37908 ft | 440 kts | 25° |
| 2026-04-21 14:52 | 33.66455 | -11.58351 | 37904 ft | 440 kts | 25° |
| 2026-04-21 14:52 | 33.71824 | -11.54815 | 37912 ft | 440 kts | 25° |
| 2026-04-21 14:53 | 33.77184 | -11.51270 | 37907 ft | 440 kts | 25° |
| 2026-04-21 14:53 | 33.82547 | -11.47738 | 37900 ft | 439 kts | 25° |
| 2026-04-21 14:54 | 33.87904 | -11.44213 | 37893 ft | 439 kts | 25° |
| 2026-04-21 14:54 | 33.92390 | -11.41258 | 37895 ft | 439 kts | 25° |
| 2026-04-21 14:55 | 33.97747 | -11.37720 | 37897 ft | 439 kts | 25° |
| 2026-04-21 14:55 | 34.03099 | -11.34173 | 37898 ft | 439 kts | 25° |
| 2026-04-21 14:56 | 34.08451 | -11.30616 | 37895 ft | 440 kts | 25° |
| 2026-04-21 14:56 | 34.13810 | -11.27060 | 37876 ft | 440 kts | 25° |
| 2026-04-21 14:57 | 34.19181 | -11.23488 | 37868 ft | 441 kts | 25° |
| 2026-04-21 14:57 | 34.24551 | -11.19911 | 37879 ft | 441 kts | 25° |
| 2026-04-21 14:58 | 34.29957 | -11.16308 | 37877 ft | 441 kts | 25° |
| 2026-04-21 14:58 | 34.35318 | -11.12715 | 37876 ft | 441 kts | 25° |
| 2026-04-21 14:59 | 34.40687 | -11.09124 | 37875 ft | 441 kts | 25° |
| 2026-04-21 14:59 | 34.46051 | -11.05532 | 37873 ft | 441 kts | 25° |
| 2026-04-21 15:00 | 34.51414 | -11.01932 | 37888 ft | 441 kts | 25° |
| 2026-04-21 15:00 | 34.56775 | -10.98322 | 37879 ft | 441 kts | 25° |
| 2026-04-21 15:01 | 34.62151 | -10.94710 | 37878 ft | 441 kts | 25° |
| 2026-04-21 15:01 | 34.67524 | -10.91092 | 37859 ft | 442 kts | 25° |
| 2026-04-21 15:02 | 34.72907 | -10.87451 | 37851 ft | 443 kts | 25° |
| 2026-04-21 15:02 | 34.78302 | -10.83802 | 37865 ft | 444 kts | 25° |
| 2026-04-21 15:03 | 34.83700 | -10.80147 | 37860 ft | 444 kts | 25° |
| 2026-04-21 15:03 | 34.89100 | -10.76483 | 37859 ft | 444 kts | 25° |
| 2026-04-21 15:04 | 34.94509 | -10.72819 | 37863 ft | 444 kts | 25° |
| 2026-04-21 15:04 | 34.99909 | -10.69144 | 37863 ft | 445 kts | 25° |
| 2026-04-21 15:05 | 35.05316 | -10.65457 | 37883 ft | 445 kts | 25° |
| 2026-04-21 15:05 | 35.13421 | -10.59922 | 37868 ft | 445 kts | 25° |
| 2026-04-21 15:06 | 35.18826 | -10.56231 | 37862 ft | 445 kts | 25° |
| 2026-04-21 15:06 | 35.24272 | -10.52490 | 37837 ft | 447 kts | 25° |
| 2026-04-21 15:07 | 35.29700 | -10.48764 | 37833 ft | 448 kts | 25° |
| 2026-04-21 15:07 | 35.35140 | -10.45031 | 37849 ft | 449 kts | 25° |
| 2026-04-21 15:08 | 35.40593 | -10.41288 | 37846 ft | 449 kts | 25° |
| 2026-04-21 15:08 | 35.46042 | -10.37540 | 37848 ft | 449 kts | 25° |
| 2026-04-21 15:09 | 35.51489 | -10.33769 | 37850 ft | 450 kts | 25° |
| 2026-04-21 15:09 | 35.56940 | -10.29999 | 37851 ft | 450 kts | 25° |
| 2026-04-21 15:10 | 35.62386 | -10.26223 | 37846 ft | 449 kts | 25° |
| 2026-04-21 15:10 | 35.67824 | -10.22445 | 37847 ft | 449 kts | 25° |
| 2026-04-21 15:11 | 35.73277 | -10.18650 | 37834 ft | 451 kts | 25° |
| 2026-04-21 15:11 | 35.78747 | -10.14836 | 37825 ft | 453 kts | 25° |
| 2026-04-21 15:12 | 35.84239 | -10.11021 | 37835 ft | 454 kts | 25° |
| 2026-04-21 15:12 | 35.89740 | -10.07186 | 37841 ft | 454 kts | 25° |
| 2026-04-21 15:13 | 35.95247 | -10.03334 | 37828 ft | 455 kts | 25° |
| 2026-04-21 15:13 | 36.00758 | -9.99488 | 37840 ft | 455 kts | 25° |
| 2026-04-21 15:14 | 36.06280 | -9.95641 | 37844 ft | 455 kts | 25° |
| 2026-04-21 15:14 | 36.11838 | -9.91782 | 37836 ft | 456 kts | 25° |
| 2026-04-21 15:15 | 36.17368 | -9.87934 | 37839 ft | 456 kts | 25° |
| 2026-04-21 15:15 | 36.22891 | -9.84081 | 37844 ft | 457 kts | 25° |
| 2026-04-21 15:16 | 36.28432 | -9.80194 | 37814 ft | 459 kts | 26° |
| 2026-04-21 15:16 | 36.34001 | -9.76285 | 37812 ft | 460 kts | 26° |
| 2026-04-21 15:17 | 36.39618 | -9.72344 | 37824 ft | 462 kts | 26° |
| 2026-04-21 15:17 | 36.45218 | -9.68401 | 37820 ft | 463 kts | 26° |
| 2026-04-21 15:18 | 36.50833 | -9.64443 | 37822 ft | 464 kts | 26° |
| 2026-04-21 15:18 | 36.56449 | -9.60487 | 37828 ft | 465 kts | 26° |
| 2026-04-21 15:19 | 36.62081 | -9.56506 | 37848 ft | 465 kts | 26° |
| 2026-04-21 15:19 | 36.67699 | -9.52523 | 37837 ft | 465 kts | 26° |
| 2026-04-21 15:20 | 36.73328 | -9.48527 | 37836 ft | 465 kts | 26° |
| 2026-04-21 15:20 | 36.78991 | -9.44500 | 37816 ft | 466 kts | 26° |
| 2026-04-21 15:21 | 36.84643 | -9.40473 | 37804 ft | 469 kts | 26° |
| 2026-04-21 15:21 | 36.90321 | -9.36430 | 37816 ft | 471 kts | 26° |
| 2026-04-21 15:22 | 36.96018 | -9.32359 | 37816 ft | 472 kts | 26° |
| 2026-04-21 15:22 | 37.01724 | -9.28275 | 37813 ft | 473 kts | 26° |
| 2026-04-21 15:23 | 37.07430 | -9.24179 | 37815 ft | 473 kts | 26° |
| 2026-04-21 15:23 | 37.13147 | -9.20077 | 37844 ft | 474 kts | 26° |
| 2026-04-21 15:24 | 37.18867 | -9.15966 | 37833 ft | 474 kts | 26° |
| 2026-04-21 15:24 | 37.24589 | -9.11845 | 37830 ft | 474 kts | 26° |
| 2026-04-21 15:25 | 37.29387 | -9.08387 | 37428 ft | 474 kts | 27° |
| 2026-04-21 15:25 | 37.32253 | -9.06316 | 36686 ft | 479 kts | 27° |
| 2026-04-21 15:25 | 37.35153 | -9.04216 | 35884 ft | 483 kts | 27° |
| 2026-04-21 15:26 | 37.38075 | -9.02095 | 35020 ft | 488 kts | 27° |
| 2026-04-21 15:26 | 37.41040 | -8.99942 | 34019 ft | 495 kts | 28° |
| 2026-04-21 15:26 | 37.44047 | -8.97761 | 32956 ft | 500 kts | 28° |
| 2026-04-21 15:26 | 37.47075 | -8.95566 | 31838 ft | 505 kts | 28° |
| 2026-04-21 15:27 | 37.50142 | -8.93339 | 30594 ft | 512 kts | 29° |
| 2026-04-21 15:27 | 37.53258 | -8.91109 | 29224 ft | 519 kts | 26° |
| 2026-04-21 15:27 | 37.56617 | -8.89443 | 28192 ft | 515 kts | 13° |
| 2026-04-21 15:27 | 37.60060 | -8.88625 | 27983 ft | 493 kts | 3° |
| 2026-04-21 15:28 | 37.63410 | -8.88517 | 27804 ft | 471 kts | 353° |
| 2026-04-21 15:28 | 37.66590 | -8.89098 | 27519 ft | 455 kts | 341° |
| 2026-04-21 15:28 | 37.69585 | -8.90247 | 27241 ft | 448 kts | 337° |
| 2026-04-21 15:28 | 37.72533 | -8.91458 | 26752 ft | 444 kts | 337° |
| 2026-04-21 15:29 | 37.75462 | -8.92661 | 26271 ft | 440 kts | 337° |
| 2026-04-21 15:29 | 37.78402 | -8.93864 | 25777 ft | 437 kts | 337° |
| 2026-04-21 15:29 | 37.81290 | -8.95044 | 25299 ft | 434 kts | 337° |
| 2026-04-21 15:29 | 37.84147 | -8.96212 | 24826 ft | 430 kts | 337° |
| 2026-04-21 15:30 | 37.86989 | -8.97373 | 24351 ft | 428 kts | 337° |
| 2026-04-21 15:30 | 37.89820 | -8.98529 | 23882 ft | 426 kts | 337° |
| 2026-04-21 15:30 | 37.92628 | -8.99677 | 23420 ft | 423 kts | 337° |
| 2026-04-21 15:30 | 37.95409 | -9.00750 | 23241 ft | 413 kts | 342° |
| 2026-04-21 15:31 | 37.98237 | -9.01145 | 23102 ft | 406 kts | 357° |
| 2026-04-21 15:31 | 38.01008 | -9.00728 | 22874 ft | 400 kts | 11° |
| 2026-04-21 15:31 | 38.03625 | -8.99543 | 22405 ft | 409 kts | 26° |
| 2026-04-21 15:31 | 38.06139 | -8.97577 | 21957 ft | 440 kts | 33° |
| 2026-04-21 15:32 | 38.08723 | -8.95392 | 21514 ft | 450 kts | 33° |
| 2026-04-21 15:32 | 38.11330 | -8.93188 | 21062 ft | 451 kts | 33° |
| 2026-04-21 15:32 | 38.13940 | -8.90986 | 20603 ft | 449 kts | 33° |
| 2026-04-21 15:32 | 38.16533 | -8.88804 | 20153 ft | 446 kts | 33° |
| 2026-04-21 15:33 | 38.19114 | -8.86637 | 19711 ft | 443 kts | 33° |
| 2026-04-21 15:33 | 38.21679 | -8.84488 | 19264 ft | 440 kts | 33° |
| 2026-04-21 15:33 | 38.24228 | -8.82345 | 18822 ft | 438 kts | 33° |
| 2026-04-21 15:33 | 38.26761 | -8.80210 | 18393 ft | 435 kts | 33° |
| 2026-04-21 15:34 | 38.29311 | -8.78056 | 17915 ft | 432 kts | 33° |
| 2026-04-21 15:34 | 38.31806 | -8.75945 | 17471 ft | 430 kts | 33° |
| 2026-04-21 15:34 | 38.34295 | -8.73837 | 17043 ft | 428 kts | 33° |
| 2026-04-21 15:34 | 38.36769 | -8.71741 | 16597 ft | 426 kts | 33° |
| 2026-04-21 15:35 | 38.39233 | -8.69652 | 16183 ft | 425 kts | 33° |
| 2026-04-21 15:35 | 38.41690 | -8.67573 | 15746 ft | 423 kts | 33° |
| 2026-04-21 15:35 | 38.44142 | -8.65500 | 15326 ft | 421 kts | 34° |
| 2026-04-21 15:35 | 38.46578 | -8.63435 | 14899 ft | 419 kts | 34° |
| 2026-04-21 15:36 | 38.49001 | -8.61372 | 14479 ft | 418 kts | 34° |
| 2026-04-21 15:36 | 38.51410 | -8.59319 | 14134 ft | 415 kts | 34° |
| 2026-04-21 15:36 | 38.53899 | -8.57470 | 13999 ft | 415 kts | 22° |
| 2026-04-21 15:36 | 38.56672 | -8.56511 | 13705 ft | 411 kts | 4° |
| 2026-04-21 15:37 | 38.59546 | -8.56414 | 13251 ft | 406 kts | 356° |
| 2026-04-21 15:37 | 38.62363 | -8.56424 | 12851 ft | 405 kts | 356° |
| 2026-04-21 15:37 | 38.65178 | -8.56425 | 12454 ft | 402 kts | 357° |
| 2026-04-21 15:37 | 38.67915 | -8.56410 | 12257 ft | 385 kts | 357° |
| 2026-04-21 15:38 | 38.70526 | -8.56382 | 12122 ft | 363 kts | 357° |
| 2026-04-21 15:38 | 38.72982 | -8.56352 | 11993 ft | 345 kts | 357° |
| 2026-04-21 15:38 | 38.75324 | -8.56328 | 11825 ft | 329 kts | 357° |
| 2026-04-21 15:38 | 38.77593 | -8.56312 | 11433 ft | 323 kts | 357° |
| 2026-04-21 15:39 | 38.79827 | -8.56304 | 10963 ft | 321 kts | 357° |
| 2026-04-21 15:39 | 38.82057 | -8.56297 | 10481 ft | 319 kts | 357° |
| 2026-04-21 15:39 | 38.84275 | -8.56288 | 10012 ft | 318 kts | 358° |
| 2026-04-21 15:39 | 38.86488 | -8.56276 | 9551 ft | 318 kts | 358° |
| 2026-04-21 15:40 | 38.88683 | -8.56264 | 9282 ft | 314 kts | 358° |
| 2026-04-21 15:40 | 38.90857 | -8.56252 | 8941 ft | 312 kts | 358° |
| 2026-04-21 15:40 | 38.93003 | -8.56471 | 8597 ft | 305 kts | 339° |
| 2026-04-21 15:40 | 38.94825 | -8.57768 | 8247 ft | 290 kts | 308° |
| 2026-04-21 15:41 | 38.95911 | -8.59811 | 7934 ft | 271 kts | 282° |
| 2026-04-21 15:41 | 38.96223 | -8.62103 | 7630 ft | 254 kts | 262° |
| 2026-04-21 15:41 | 38.96234 | -8.64359 | 7350 ft | 252 kts | 262° |
| 2026-04-21 15:41 | 38.96284 | -8.66599 | 7092 ft | 254 kts | 269° |
| 2026-04-21 15:42 | 38.96971 | -8.68716 | 6917 ft | 266 kts | 302° |
| 2026-04-21 15:42 | 38.98512 | -8.70075 | 6785 ft | 278 kts | 339° |
| 2026-04-21 15:42 | 39.00413 | -8.70549 | 6766 ft | 274 kts | 345° |
| 2026-04-21 15:42 | 39.02093 | -8.71450 | 6706 ft | 254 kts | 321° |
| 2026-04-21 15:43 | 39.03345 | -8.73027 | 6208 ft | 251 kts | 295° |
| 2026-04-21 15:43 | 39.04018 | -8.75068 | 5839 ft | 240 kts | 274° |
| 2026-04-21 15:43 | 39.04094 | -8.77148 | 5539 ft | 228 kts | 256° |
| 2026-04-21 15:43 | 39.03678 | -8.79075 | 5222 ft | 222 kts | 245° |
| 2026-04-21 15:44 | 39.03160 | -8.80944 | 4885 ft | 222 kts | 246° |
| 2026-04-21 15:44 | 39.02646 | -8.82823 | 4586 ft | 222 kts | 246° |
| 2026-04-21 15:44 | 39.02139 | -8.84686 | 4320 ft | 220 kts | 246° |
| 2026-04-21 15:44 | 39.01635 | -8.86529 | 4072 ft | 217 kts | 247° |
| 2026-04-21 15:45 | 39.01131 | -8.88367 | 3992 ft | 218 kts | 246° |
| 2026-04-21 15:45 | 39.00629 | -8.90203 | 4007 ft | 218 kts | 246° |
| 2026-04-21 15:45 | 39.00126 | -8.92043 | 4009 ft | 219 kts | 247° |
| 2026-04-21 15:45 | 38.99621 | -8.93893 | 4010 ft | 220 kts | 247° |
| 2026-04-21 15:46 | 38.99118 | -8.95737 | 3992 ft | 217 kts | 247° |
| 2026-04-21 15:46 | 38.98574 | -8.97537 | 4007 ft | 216 kts | 243° |
| 2026-04-21 15:46 | 38.97902 | -8.99269 | 4007 ft | 214 kts | 239° |
| 2026-04-21 15:46 | 38.97201 | -9.00938 | 3993 ft | 208 kts | 239° |
| 2026-04-21 15:47 | 38.96533 | -9.02509 | 4007 ft | 193 kts | 238° |
| 2026-04-21 15:47 | 38.95766 | -9.03862 | 3811 ft | 185 kts | 221° |
| 2026-04-21 15:47 | 38.94684 | -9.04712 | 3590 ft | 182 kts | 204° |
| 2026-04-21 15:47 | 38.93528 | -9.05331 | 3361 ft | 179 kts | 204° |
| 2026-04-21 15:48 | 38.92385 | -9.05946 | 3127 ft | 176 kts | 204° |
| 2026-04-21 15:48 | 38.91314 | -9.06520 | 2920 ft | 156 kts | 205° |
| 2026-04-21 15:48 | 38.90351 | -9.07037 | 2701 ft | 143 kts | 206° |
| 2026-04-21 15:48 | 38.89485 | -9.07502 | 2511 ft | 128 kts | 204° |
| 2026-04-21 15:49 | 38.88692 | -9.07930 | 2353 ft | 122 kts | 206° |
| 2026-04-21 15:49 | 38.87888 | -9.08362 | 2203 ft | 127 kts | 206° |
| 2026-04-21 15:49 | 38.87094 | -9.08788 | 2038 ft | 120 kts | 206° |
| 2026-04-21 15:49 | 38.86328 | -9.09200 | 1865 ft | 122 kts | 206° |
| 2026-04-21 15:50 | 38.85530 | -9.09629 | 1699 ft | 125 kts | 204° |
| 2026-04-21 15:50 | 38.84709 | -9.10069 | 1541 ft | 126 kts | 204° |
| 2026-04-21 15:50 | 38.83921 | -9.10491 | 1361 ft | 121 kts | 204° |
| 2026-04-21 15:50 | 38.83150 | -9.10905 | 1198 ft | 118 kts | 205° |
| 2026-04-21 15:51 | 38.82400 | -9.11307 | 1068 ft | 114 kts | 206° |
| 2026-04-21 15:51 | 38.81903 | -9.11573 | 948 ft | 114 kts | 203° |
| 2026-04-21 15:51 | 38.81160 | -9.11971 | 806 ft | 115 kts | 204° |
| 2026-04-21 15:51 | 38.80446 | -9.12354 | 655 ft | 110 kts | 204° |
| 2026-04-21 15:52 | 38.79685 | -9.12760 | 499 ft | 116 kts | 203° |
| 2026-04-21 15:52 | 38.78959 | -9.13149 | 374 ft | 112 kts | 203° |
| 2026-04-21 15:52 | 38.78355 | -9.13472 | 368 ft | 74 kts | 202° |
| 2026-04-21 15:52 | 38.78105 | -9.13605 | 369 ft | 31 kts | 202° |
| 2026-04-21 15:53 | 38.77882 | -9.13718 | 364 ft | 38 kts | 198° |
| 2026-04-21 15:53 | 38.77673 | -9.13762 | 363 ft | 14 kts | 178° |
| 2026-04-21 15:53 | 38.77578 | -9.13757 | 363 ft | 10 kts | 178° |
| 2026-04-21 15:53 | 38.77491 | -9.13751 | 360 ft | 9 kts | 177° |
| 2026-04-21 15:54 | 38.77407 | -9.13751 | 363 ft | 11 kts | 197° |
| 2026-04-21 15:54 | 38.77359 | -9.13776 | 355 ft | 0 kts | 203° |
| 2026-04-21 15:55 | 38.77358 | -9.13777 | 355 ft | 2 kts | 203° |
| 2026-04-21 15:55 | 38.77319 | -9.13794 | 361 ft | 10 kts | 188° |
| 2026-04-21 15:55 | 38.77259 | -9.13715 | 355 ft | 8 kts | 92° |
| 2026-04-21 15:56 | 38.77275 | -9.13622 | 350 ft | 13 kts | 78° |
| 2026-04-21 15:56 | 38.77282 | -9.13584 | 354 ft | 0 kts | 78° |
| 2026-04-21 15:56 | 38.77285 | -9.13562 | 349 ft | 8 kts | 78° |
| 2026-04-21 15:57 | 38.77331 | -9.13512 | 349 ft | 12 kts | 359° |
| 2026-04-21 15:57 | 38.77420 | -9.13535 | 348 ft | 14 kts | 350° |
| 2026-04-21 15:57 | 38.77511 | -9.13469 | 350 ft | 18 kts | 38° |
| 2026-04-21 15:57 | 38.77634 | -9.13397 | 348 ft | 21 kts | 21° |
| 2026-04-21 15:58 | 38.77736 | -9.13288 | 338 ft | 20 kts | 76° |
| 2026-04-21 15:58 | 38.77752 | -9.13192 | 338 ft | 9 kts | 78° |
| 2026-04-21 15:58 | 38.77769 | -9.13098 | 334 ft | 12 kts | 72° |
| 2026-04-21 15:58 | 38.77857 | -9.13035 | 329 ft | 19 kts | 352° |
| 2026-04-21 15:59 | 38.77944 | -9.13058 | 333 ft | 6 kts | 348° |
| 2026-04-21 15:59 | 38.77982 | -9.13068 | 333 ft | 6 kts | 348° |
| 2026-04-21 15:59 | 38.78021 | -9.13079 | 337 ft | 5 kts | 347° |
| 2026-04-21 15:59 | 38.78061 | -9.13074 | 335 ft | 8 kts | 27° |
| 2026-04-21 16:00 | 38.78088 | -9.13003 | 334 ft | 10 kts | 57° |
| 2026-04-21 16:00 | 38.78109 | -9.12982 | 337 ft | 0 kts | 33° |